Aérodrome :
LOGIN :

S'inscrire | Disclaimer

   EN    FR    IT 

 










Légende :    VFR   VFR Marginal   IFR   IFR Intensif   IFR Très Intensif
Visi : 
Plafond : 
>= 8 km
>= 3000ft
5 à 8 km
1000 à 3000 ft
1500m à 5 km
500 à 1000 ft
800 à 1500m
200 à 500 ft
< 800m
< 200 ft
Symboles :   Orages  Brouillard  Fortes neiges  Fortes précipitations  Vent > 20 kt
SIGMETs :   Divers  Orages  Givrage  Turbulence  Onde Orograph.  Cendres Volcan.






- Altitude de l'aérodrome : 41 ft
- Code IATA : PFO


LCPH - Pafos Int.

DERNIER METAR :
  • 191700Z 18006KT 150V210 9999 FEW020TCU BKN030 14/10 Q1018

METARs EXPIRÉS :
  • 191630Z 15008KT 9999 FEW020TCU BKN030 14/10 Q1017
  • 191600Z 14006KT 9999 FEW020TCU BKN030 14/10 Q1017
  • 191530Z 14005KT 9999 FEW020TCU BKN050 14/10 Q1017
  • 191500Z 17003KT 140V210 9999 FEW017 SCT020TCU BKN080 14/10 Q1016
  • 191430Z VRB03KT 9999 FEW017 SCT020TCU 14/10 Q1016

TAF TAF LCPH
Valide du 19 à 12h jusqu'au 20 à 12h UTC


191130Z 1912/2012 14010KT 9999 FEW020 SCT040
PROB30
TEMPO 1912/2012 5000 SHRA SCT020TCU
BECMG 1920/1922 02009K



MET'MAP, la Météo Aéronautique d'un coup d'oeil ! - Copyright ORBIFLY Décembre 2007 - Disclaimer

ORBIFLY MET'MAP TEAM :

Programmation & Développement : Alexandra Zaïnal
Sur une idée originale de : Baudouin d'Aumeries
Assistance à la programmation : Marc-Olivier Méhu
Soutien technique & logistique : Manuel Goepfert

Contact : metmap@orbifly.com




SOURCES & CREDITS :

   NOAA